sensor_id;sensor_type;location;lat;lon;timestamp;P1;durP1;ratioP1;P2;durP2;ratioP2
17153;SDS011;8692;52.164;7.558;2022-08-19T00:02:29;3.27;;;3.07;;
17153;SDS011;8692;52.164;7.558;2022-08-19T00:05:00;3.33;;;3.13;;
17153;SDS011;8692;52.164;7.558;2022-08-19T00:07:28;4.60;;;4.13;;
17153;SDS011;8692;52.164;7.558;2022-08-19T00:09:56;4.10;;;3.80;;
17153;SDS011;8692;52.164;7.558;2022-08-19T00:12:24;4.87;;;3.87;;
17153;SDS011;8692;52.164;7.558;2022-08-19T00:14:53;3.93;;;3.63;;
17153;SDS011;8692;52.164;7.558;2022-08-19T00:17:22;4.07;;;3.77;;
17153;SDS011;8692;52.164;7.558;2022-08-19T00:19:51;3.87;;;3.57;;
17153;SDS011;8692;52.164;7.558;2022-08-19T00:22:22;3.80;;;3.50;;
17153;SDS011;8692;52.164;7.558;2022-08-19T00:24:50;4.13;;;3.80;;
17153;SDS011;8692;52.164;7.558;2022-08-19T00:27:22;3.87;;;3.57;;
17153;SDS011;8692;52.164;7.558;2022-08-19T00:29:52;3.53;;;3.33;;
17153;SDS011;8692;52.164;7.558;2022-08-19T00:32:20;3.70;;;3.40;;
17153;SDS011;8692;52.164;7.558;2022-08-19T00:34:52;3.90;;;3.60;;
17153;SDS011;8692;52.164;7.558;2022-08-19T00:37:21;4.77;;;4.10;;
17153;SDS011;8692;52.164;7.558;2022-08-19T00:39:52;4.67;;;4.27;;
17153;SDS011;8692;52.164;7.558;2022-08-19T00:42:22;4.40;;;4.00;;
17153;SDS011;8692;52.164;7.558;2022-08-19T00:44:54;4.33;;;4.00;;
17153;SDS011;8692;52.164;7.558;2022-08-19T00:47:24;4.70;;;4.30;;
17153;SDS011;8692;52.164;7.558;2022-08-19T00:49:53;4.30;;;3.87;;
17153;SDS011;8692;52.164;7.558;2022-08-19T00:52:24;4.20;;;3.90;;
17153;SDS011;8692;52.164;7.558;2022-08-19T00:54:56;3.87;;;3.57;;
17153;SDS011;8692;52.164;7.558;2022-08-19T00:57:29;4.23;;;3.93;;
17153;SDS011;8692;52.164;7.558;2022-08-19T01:00:00;4.60;;;4.20;;
17153;SDS011;8692;52.164;7.558;2022-08-19T01:02:35;4.73;;;4.33;;
17153;SDS011;8692;52.164;7.558;2022-08-19T01:05:04;4.23;;;3.93;;
17153;SDS011;8692;52.164;7.558;2022-08-19T01:07:35;4.83;;;4.33;;
17153;SDS011;8692;52.164;7.558;2022-08-19T01:10:07;4.63;;;4.27;;
17153;SDS011;8692;52.164;7.558;2022-08-19T01:12:38;4.67;;;4.27;;
17153;SDS011;8692;52.164;7.558;2022-08-19T01:15:09;5.30;;;4.80;;
17153;SDS011;8692;52.164;7.558;2022-08-19T01:17:41;4.30;;;4.00;;
17153;SDS011;8692;52.164;7.558;2022-08-19T01:20:12;4.67;;;4.20;;
17153;SDS011;8692;52.164;7.558;2022-08-19T01:22:44;4.40;;;4.10;;
17153;SDS011;8692;52.164;7.558;2022-08-19T01:25:14;5.20;;;4.80;;
17153;SDS011;8692;52.164;7.558;2022-08-19T01:27:46;4.77;;;4.37;;
17153;SDS011;8692;52.164;7.558;2022-08-19T01:30:19;4.73;;;4.33;;
17153;SDS011;8692;52.164;7.558;2022-08-19T01:32:49;5.03;;;4.63;;
17153;SDS011;8692;52.164;7.558;2022-08-19T01:35:21;5.10;;;4.70;;
17153;SDS011;8692;52.164;7.558;2022-08-19T01:37:54;5.10;;;4.70;;
17153;SDS011;8692;52.164;7.558;2022-08-19T01:40:26;4.83;;;4.43;;
17153;SDS011;8692;52.164;7.558;2022-08-19T01:42:57;5.17;;;4.67;;
17153;SDS011;8692;52.164;7.558;2022-08-19T01:45:29;5.10;;;4.57;;
17153;SDS011;8692;52.164;7.558;2022-08-19T01:48:01;5.17;;;4.77;;
17153;SDS011;8692;52.164;7.558;2022-08-19T01:50:30;5.70;;;5.20;;
17153;SDS011;8692;52.164;7.558;2022-08-19T01:53:03;5.30;;;4.90;;
17153;SDS011;8692;52.164;7.558;2022-08-19T01:55:35;5.20;;;4.80;;
17153;SDS011;8692;52.164;7.558;2022-08-19T01:58:06;5.77;;;5.27;;
17153;SDS011;8692;52.164;7.558;2022-08-19T02:00:38;5.70;;;5.20;;
17153;SDS011;8692;52.164;7.558;2022-08-19T02:03:09;5.37;;;4.97;;
17153;SDS011;8692;52.164;7.558;2022-08-19T02:05:38;5.80;;;5.20;;
17153;SDS011;8692;52.164;7.558;2022-08-19T02:08:10;5.53;;;5.07;;
17153;SDS011;8692;52.164;7.558;2022-08-19T02:10:39;4.93;;;4.53;;
17153;SDS011;8692;52.164;7.558;2022-08-19T02:13:10;5.63;;;5.23;;
17153;SDS011;8692;52.164;7.558;2022-08-19T02:15:41;5.43;;;5.03;;
17153;SDS011;8692;52.164;7.558;2022-08-19T02:18:10;5.50;;;5.10;;
17153;SDS011;8692;52.164;7.558;2022-08-19T02:20:41;5.50;;;5.10;;
17153;SDS011;8692;52.164;7.558;2022-08-19T02:23:13;5.50;;;5.10;;
17153;SDS011;8692;52.164;7.558;2022-08-19T02:25:46;5.60;;;5.10;;
17153;SDS011;8692;52.164;7.558;2022-08-19T02:28:15;4.97;;;4.57;;
17153;SDS011;8692;52.164;7.558;2022-08-19T02:30:45;5.50;;;5.10;;
17153;SDS011;8692;52.164;7.558;2022-08-19T02:33:15;5.43;;;4.93;;
17153;SDS011;8692;52.164;7.558;2022-08-19T02:35:43;4.67;;;4.37;;
17153;SDS011;8692;52.164;7.558;2022-08-19T02:38:13;5.70;;;5.20;;
17153;SDS011;8692;52.164;7.558;2022-08-19T02:40:58;4.50;;;4.10;;
17153;SDS011;8692;52.164;7.558;2022-08-19T02:43:31;5.20;;;4.80;;
17153;SDS011;8692;52.164;7.558;2022-08-19T02:46:10;5.40;;;4.90;;
17153;SDS011;8692;52.164;7.558;2022-08-19T02:48:43;5.73;;;5.23;;
17153;SDS011;8692;52.164;7.558;2022-08-19T02:51:17;5.67;;;5.07;;
17153;SDS011;8692;52.164;7.558;2022-08-19T02:53:48;5.07;;;4.67;;
17153;SDS011;8692;52.164;7.558;2022-08-19T02:56:16;5.43;;;5.03;;
17153;SDS011;8692;52.164;7.558;2022-08-19T02:58:48;4.90;;;4.50;;
17153;SDS011;8692;52.164;7.558;2022-08-19T03:01:21;5.30;;;4.90;;
17153;SDS011;8692;52.164;7.558;2022-08-19T03:03:52;5.57;;;5.07;;
17153;SDS011;8692;52.164;7.558;2022-08-19T03:06:20;4.90;;;4.50;;
17153;SDS011;8692;52.164;7.558;2022-08-19T03:08:54;5.47;;;4.97;;
17153;SDS011;8692;52.164;7.558;2022-08-19T03:11:23;5.90;;;5.40;;
17153;SDS011;8692;52.164;7.558;2022-08-19T03:13:54;4.87;;;4.47;;
17153;SDS011;8692;52.164;7.558;2022-08-19T03:16:24;5.33;;;4.93;;
17153;SDS011;8692;52.164;7.558;2022-08-19T03:18:58;5.37;;;4.97;;
17153;SDS011;8692;52.164;7.558;2022-08-19T03:21:28;5.70;;;5.23;;
17153;SDS011;8692;52.164;7.558;2022-08-19T03:24:03;6.20;;;5.70;;
17153;SDS011;8692;52.164;7.558;2022-08-19T03:26:33;6.03;;;5.53;;
17153;SDS011;8692;52.164;7.558;2022-08-19T03:29:02;5.77;;;5.27;;
17153;SDS011;8692;52.164;7.558;2022-08-19T03:31:31;5.30;;;4.90;;
17153;SDS011;8692;52.164;7.558;2022-08-19T03:34:10;6.10;;;5.60;;
17153;SDS011;8692;52.164;7.558;2022-08-19T03:36:40;5.97;;;5.40;;
17153;SDS011;8692;52.164;7.558;2022-08-19T03:39:10;6.03;;;5.53;;
17153;SDS011;8692;52.164;7.558;2022-08-19T03:41:42;6.53;;;5.90;;
17153;SDS011;8692;52.164;7.558;2022-08-19T03:44:14;5.77;;;5.20;;
17153;SDS011;8692;52.164;7.558;2022-08-19T03:46:48;5.80;;;5.23;;
17153;SDS011;8692;52.164;7.558;2022-08-19T03:49:18;7.03;;;6.43;;
17153;SDS011;8692;52.164;7.558;2022-08-19T03:51:54;6.13;;;5.63;;
17153;SDS011;8692;52.164;7.558;2022-08-19T03:54:25;7.57;;;6.97;;
17153;SDS011;8692;52.164;7.558;2022-08-19T03:56:54;6.37;;;5.90;;
17153;SDS011;8692;52.164;7.558;2022-08-19T03:59:24;6.27;;;5.77;;
17153;SDS011;8692;52.164;7.558;2022-08-19T04:01:55;6.23;;;5.73;;
17153;SDS011;8692;52.164;7.558;2022-08-19T04:04:25;6.93;;;6.43;;
17153;SDS011;8692;52.164;7.558;2022-08-19T04:06:57;6.33;;;5.83;;
17153;SDS011;8692;52.164;7.558;2022-08-19T04:09:27;6.73;;;6.23;;
17153;SDS011;8692;52.164;7.558;2022-08-19T04:11:56;6.40;;;5.90;;
17153;SDS011;8692;52.164;7.558;2022-08-19T04:14:25;6.77;;;6.17;;
17153;SDS011;8692;52.164;7.558;2022-08-19T04:16:56;6.20;;;5.80;;
17153;SDS011;8692;52.164;7.558;2022-08-19T04:19:28;6.07;;;5.57;;
17153;SDS011;8692;52.164;7.558;2022-08-19T04:21:57;6.67;;;6.07;;
17153;SDS011;8692;52.164;7.558;2022-08-19T04:24:27;6.03;;;5.53;;
17153;SDS011;8692;52.164;7.558;2022-08-19T04:27:03;6.73;;;6.20;;
17153;SDS011;8692;52.164;7.558;2022-08-19T04:29:35;7.20;;;6.60;;
17153;SDS011;8692;52.164;7.558;2022-08-19T04:32:05;6.53;;;5.93;;
17153;SDS011;8692;52.164;7.558;2022-08-19T04:34:35;6.37;;;5.87;;
17153;SDS011;8692;52.164;7.558;2022-08-19T04:37:24;6.53;;;6.03;;
17153;SDS011;8692;52.164;7.558;2022-08-19T04:40:02;6.10;;;5.53;;
17153;SDS011;8692;52.164;7.558;2022-08-19T04:42:49;6.33;;;5.73;;
17153;SDS011;8692;52.164;7.558;2022-08-19T04:45:18;5.90;;;5.30;;
17153;SDS011;8692;52.164;7.558;2022-08-19T04:47:48;6.43;;;5.87;;
17153;SDS011;8692;52.164;7.558;2022-08-19T04:50:24;7.00;;;6.40;;
17153;SDS011;8692;52.164;7.558;2022-08-19T04:52:52;6.47;;;5.87;;
17153;SDS011;8692;52.164;7.558;2022-08-19T04:55:24;6.13;;;5.63;;
17153;SDS011;8692;52.164;7.558;2022-08-19T04:57:52;5.87;;;5.47;;
17153;SDS011;8692;52.164;7.558;2022-08-19T05:00:22;5.47;;;5.07;;
17153;SDS011;8692;52.164;7.558;2022-08-19T05:02:50;6.37;;;5.40;;
17153;SDS011;8692;52.164;7.558;2022-08-19T05:05:19;6.00;;;5.50;;
17153;SDS011;8692;52.164;7.558;2022-08-19T05:07:50;6.37;;;5.80;;
17153;SDS011;8692;52.164;7.558;2022-08-19T05:10:18;6.20;;;5.70;;
17153;SDS011;8692;52.164;7.558;2022-08-19T05:12:48;6.40;;;5.80;;
17153;SDS011;8692;52.164;7.558;2022-08-19T05:15:16;5.93;;;5.43;;
17153;SDS011;8692;52.164;7.558;2022-08-19T05:17:47;7.53;;;6.97;;
17153;SDS011;8692;52.164;7.558;2022-08-19T05:20:31;8.20;;;7.55;;
17153;SDS011;8692;52.164;7.558;2022-08-19T05:23:17;7.37;;;6.87;;
17153;SDS011;8692;52.164;7.558;2022-08-19T05:25:48;7.80;;;7.10;;
17153;SDS011;8692;52.164;7.558;2022-08-19T05:28:19;8.13;;;7.43;;
17153;SDS011;8692;52.164;7.558;2022-08-19T05:30:48;7.60;;;7.00;;
17153;SDS011;8692;52.164;7.558;2022-08-19T05:33:17;7.60;;;6.67;;
17153;SDS011;8692;52.164;7.558;2022-08-19T05:35:45;7.00;;;6.40;;
17153;SDS011;8692;52.164;7.558;2022-08-19T05:38:17;6.97;;;6.37;;
17153;SDS011;8692;52.164;7.558;2022-08-19T05:40:46;7.40;;;6.70;;
17153;SDS011;8692;52.164;7.558;2022-08-19T05:43:15;7.20;;;6.53;;
17153;SDS011;8692;52.164;7.558;2022-08-19T05:45:48;7.07;;;6.37;;
17153;SDS011;8692;52.164;7.558;2022-08-19T05:48:19;7.70;;;7.10;;
17153;SDS011;8692;52.164;7.558;2022-08-19T05:50:47;7.83;;;7.13;;
17153;SDS011;8692;52.164;7.558;2022-08-19T05:53:17;8.37;;;7.60;;
17153;SDS011;8692;52.164;7.558;2022-08-19T05:55:45;8.50;;;7.73;;
17153;SDS011;8692;52.164;7.558;2022-08-19T05:58:13;10.30;;;9.37;;
17153;SDS011;8692;52.164;7.558;2022-08-19T06:00:44;11.47;;;10.40;;
17153;SDS011;8692;52.164;7.558;2022-08-19T06:03:16;12.40;;;11.20;;
17153;SDS011;8692;52.164;7.558;2022-08-19T06:05:45;18.37;;;16.43;;
17153;SDS011;8692;52.164;7.558;2022-08-19T06:08:19;14.60;;;13.13;;
17153;SDS011;8692;52.164;7.558;2022-08-19T06:11:11;18.37;;;13.27;;
17153;SDS011;8692;52.164;7.558;2022-08-19T06:13:43;16.30;;;14.87;;
17153;SDS011;8692;52.164;7.558;2022-08-19T06:16:13;18.57;;;16.67;;
17153;SDS011;8692;52.164;7.558;2022-08-19T06:18:47;18.10;;;16.27;;
17153;SDS011;8692;52.164;7.558;2022-08-19T06:21:20;16.27;;;14.57;;
17153;SDS011;8692;52.164;7.558;2022-08-19T06:23:52;15.33;;;13.80;;
17153;SDS011;8692;52.164;7.558;2022-08-19T06:26:22;15.70;;;14.27;;
17153;SDS011;8692;52.164;7.558;2022-08-19T06:28:53;14.60;;;13.27;;
17153;SDS011;8692;52.164;7.558;2022-08-19T06:31:22;15.67;;;14.07;;
17153;SDS011;8692;52.164;7.558;2022-08-19T06:33:53;13.70;;;12.33;;
17153;SDS011;8692;52.164;7.558;2022-08-19T06:36:22;16.43;;;14.73;;
17153;SDS011;8692;52.164;7.558;2022-08-19T06:38:58;15.40;;;13.60;;
17153;SDS011;8692;52.164;7.558;2022-08-19T06:41:29;15.07;;;13.57;;
17153;SDS011;8692;52.164;7.558;2022-08-19T06:43:57;15.63;;;13.07;;
17153;SDS011;8692;52.164;7.558;2022-08-19T06:46:28;14.00;;;12.63;;
17153;SDS011;8692;52.164;7.558;2022-08-19T06:49:02;13.67;;;12.27;;
17153;SDS011;8692;52.164;7.558;2022-08-19T06:51:33;13.33;;;11.73;;
17153;SDS011;8692;52.164;7.558;2022-08-19T06:54:08;11.27;;;10.27;;
17153;SDS011;8692;52.164;7.558;2022-08-19T06:56:45;12.03;;;10.83;;
17153;SDS011;8692;52.164;7.558;2022-08-19T06:59:14;16.67;;;12.30;;
17153;SDS011;8692;52.164;7.558;2022-08-19T07:01:46;11.80;;;10.80;;
17153;SDS011;8692;52.164;7.558;2022-08-19T07:04:18;12.17;;;11.03;;
17153;SDS011;8692;52.164;7.558;2022-08-19T07:06:49;11.60;;;10.17;;
17153;SDS011;8692;52.164;7.558;2022-08-19T07:09:20;10.80;;;9.73;;
17153;SDS011;8692;52.164;7.558;2022-08-19T07:11:52;12.20;;;11.00;;
17153;SDS011;8692;52.164;7.558;2022-08-19T07:14:25;11.77;;;10.67;;
17153;SDS011;8692;52.164;7.558;2022-08-19T07:16:55;11.77;;;10.57;;
17153;SDS011;8692;52.164;7.558;2022-08-19T07:19:28;11.07;;;10.00;;
17153;SDS011;8692;52.164;7.558;2022-08-19T07:21:58;15.33;;;10.87;;
17153;SDS011;8692;52.164;7.558;2022-08-19T07:24:28;11.57;;;9.73;;
17153;SDS011;8692;52.164;7.558;2022-08-19T07:27:00;10.50;;;9.40;;
17153;SDS011;8692;52.164;7.558;2022-08-19T07:29:40;11.17;;;9.73;;
17153;SDS011;8692;52.164;7.558;2022-08-19T07:32:09;11.13;;;8.97;;
17153;SDS011;8692;52.164;7.558;2022-08-19T07:34:42;9.70;;;8.73;;
17153;SDS011;8692;52.164;7.558;2022-08-19T07:37:11;11.03;;;8.13;;
17153;SDS011;8692;52.164;7.558;2022-08-19T07:39:42;10.30;;;8.70;;
17153;SDS011;8692;52.164;7.558;2022-08-19T07:42:10;9.87;;;8.87;;
17153;SDS011;8692;52.164;7.558;2022-08-19T07:44:40;9.80;;;8.90;;
17153;SDS011;8692;52.164;7.558;2022-08-19T07:47:16;10.40;;;8.63;;
17153;SDS011;8692;52.164;7.558;2022-08-19T07:50:09;10.33;;;9.07;;
17153;SDS011;8692;52.164;7.558;2022-08-19T07:52:40;9.87;;;8.97;;
17153;SDS011;8692;52.164;7.558;2022-08-19T07:55:17;8.57;;;7.77;;
17153;SDS011;8692;52.164;7.558;2022-08-19T07:58:06;8.03;;;7.10;;
17153;SDS011;8692;52.164;7.558;2022-08-19T08:00:35;9.07;;;6.50;;
17153;SDS011;8692;52.164;7.558;2022-08-19T08:03:05;7.80;;;6.20;;
17153;SDS011;8692;52.164;7.558;2022-08-19T08:05:36;6.77;;;6.07;;
17153;SDS011;8692;52.164;7.558;2022-08-19T08:08:24;6.50;;;5.90;;
17153;SDS011;8692;52.164;7.558;2022-08-19T08:11:13;5.90;;;5.37;;
17153;SDS011;8692;52.164;7.558;2022-08-19T08:13:45;6.60;;;6.00;;
17153;SDS011;8692;52.164;7.558;2022-08-19T08:16:33;7.30;;;5.13;;
17153;SDS011;8692;52.164;7.558;2022-08-19T08:19:14;6.37;;;5.40;;
17153;SDS011;8692;52.164;7.558;2022-08-19T08:21:53;5.60;;;5.13;;
17153;SDS011;8692;52.164;7.558;2022-08-19T08:24:22;5.70;;;5.10;;
17153;SDS011;8692;52.164;7.558;2022-08-19T08:26:56;5.50;;;5.00;;
17153;SDS011;8692;52.164;7.558;2022-08-19T08:29:28;6.87;;;5.77;;
17153;SDS011;8692;52.164;7.558;2022-08-19T08:32:00;6.00;;;5.47;;
17153;SDS011;8692;52.164;7.558;2022-08-19T08:34:39;7.07;;;5.23;;
17153;SDS011;8692;52.164;7.558;2022-08-19T08:37:09;5.60;;;5.10;;
17153;SDS011;8692;52.164;7.558;2022-08-19T08:39:43;5.73;;;5.23;;
17153;SDS011;8692;52.164;7.558;2022-08-19T08:42:14;6.83;;;5.43;;
17153;SDS011;8692;52.164;7.558;2022-08-19T08:44:52;5.80;;;5.20;;
17153;SDS011;8692;52.164;7.558;2022-08-19T08:47:26;5.57;;;5.07;;
17153;SDS011;8692;52.164;7.558;2022-08-19T08:50:02;6.07;;;5.57;;
17153;SDS011;8692;52.164;7.558;2022-08-19T08:52:35;8.25;;;5.28;;
17153;SDS011;8692;52.164;7.558;2022-08-19T08:55:12;5.90;;;5.40;;
17153;SDS011;8692;52.164;7.558;2022-08-19T08:57:49;6.37;;;5.83;;
17153;SDS011;8692;52.164;7.558;2022-08-19T09:00:25;5.38;;;4.90;;
17153;SDS011;8692;52.164;7.558;2022-08-19T09:02:56;5.82;;;5.30;;
17153;SDS011;8692;52.164;7.558;2022-08-19T09:05:26;5.40;;;4.95;;
17153;SDS011;8692;52.164;7.558;2022-08-19T09:08:16;5.57;;;4.83;;
17153;SDS011;8692;52.164;7.558;2022-08-19T09:10:52;5.90;;;5.32;;
17153;SDS011;8692;52.164;7.558;2022-08-19T09:13:25;7.38;;;5.78;;
17153;SDS011;8692;52.164;7.558;2022-08-19T09:16:05;5.80;;;5.05;;
17153;SDS011;8692;52.164;7.558;2022-08-19T09:18:41;5.13;;;4.72;;
17153;SDS011;8692;52.164;7.558;2022-08-19T09:21:10;5.30;;;4.80;;
17153;SDS011;8692;52.164;7.558;2022-08-19T09:23:43;5.32;;;4.82;;
17153;SDS011;8692;52.164;7.558;2022-08-19T09:26:17;5.10;;;4.47;;
17153;SDS011;8692;52.164;7.558;2022-08-19T09:28:50;4.93;;;4.47;;
17153;SDS011;8692;52.164;7.558;2022-08-19T09:31:23;4.93;;;4.60;;
17153;SDS011;8692;52.164;7.558;2022-08-19T09:33:54;5.05;;;4.60;;
17153;SDS011;8692;52.164;7.558;2022-08-19T09:36:24;4.43;;;3.97;;
17153;SDS011;8692;52.164;7.558;2022-08-19T09:39:02;4.43;;;4.13;;
17153;SDS011;8692;52.164;7.558;2022-08-19T09:41:44;4.38;;;4.00;;
17153;SDS011;8692;52.164;7.558;2022-08-19T09:44:16;6.88;;;3.90;;
17153;SDS011;8692;52.164;7.558;2022-08-19T09:46:49;4.53;;;4.18;;
17153;SDS011;8692;52.164;7.558;2022-08-19T09:49:20;4.30;;;3.88;;
17153;SDS011;8692;52.164;7.558;2022-08-19T09:51:50;5.93;;;4.20;;
17153;SDS011;8692;52.164;7.558;2022-08-19T09:54:23;4.97;;;4.32;;
17153;SDS011;8692;52.164;7.558;2022-08-19T09:56:51;6.38;;;4.35;;
17153;SDS011;8692;52.164;7.558;2022-08-19T09:59:22;4.07;;;3.78;;
17153;SDS011;8692;52.164;7.558;2022-08-19T10:01:51;4.95;;;3.30;;
17153;SDS011;8692;52.164;7.558;2022-08-19T10:04:19;3.42;;;3.13;;
17153;SDS011;8692;52.164;7.558;2022-08-19T10:06:55;5.00;;;3.45;;
17153;SDS011;8692;52.164;7.558;2022-08-19T10:09:24;3.92;;;3.60;;
17153;SDS011;8692;52.164;7.558;2022-08-19T10:12:00;4.60;;;4.03;;
17153;SDS011;8692;52.164;7.558;2022-08-19T10:14:31;3.70;;;3.40;;
17153;SDS011;8692;52.164;7.558;2022-08-19T10:17:00;3.80;;;3.50;;
17153;SDS011;8692;52.164;7.558;2022-08-19T10:19:46;3.78;;;3.47;;
17153;SDS011;8692;52.164;7.558;2022-08-19T10:22:21;5.25;;;3.10;;
17153;SDS011;8692;52.164;7.558;2022-08-19T10:24:52;4.18;;;3.38;;
17153;SDS011;8692;52.164;7.558;2022-08-19T10:27:21;3.60;;;3.30;;
17153;SDS011;8692;52.164;7.558;2022-08-19T10:29:54;3.50;;;3.20;;
17153;SDS011;8692;52.164;7.558;2022-08-19T10:32:26;3.67;;;3.38;;
17153;SDS011;8692;52.164;7.558;2022-08-19T10:35:00;3.30;;;3.00;;
17153;SDS011;8692;52.164;7.558;2022-08-19T10:37:31;3.60;;;3.30;;
17153;SDS011;8692;52.164;7.558;2022-08-19T10:40:05;4.55;;;2.92;;
17153;SDS011;8692;52.164;7.558;2022-08-19T10:42:39;3.10;;;2.90;;
17153;SDS011;8692;52.164;7.558;2022-08-19T10:45:07;3.53;;;3.22;;
17153;SDS011;8692;52.164;7.558;2022-08-19T10:47:39;3.22;;;2.92;;
17153;SDS011;8692;52.164;7.558;2022-08-19T10:50:08;3.58;;;3.28;;
17153;SDS011;8692;52.164;7.558;2022-08-19T10:52:55;6.25;;;3.00;;
17153;SDS011;8692;52.164;7.558;2022-08-19T10:55:25;3.00;;;2.80;;
17153;SDS011;8692;52.164;7.558;2022-08-19T10:58:13;2.72;;;2.33;;
17153;SDS011;8692;52.164;7.558;2022-08-19T11:00:50;3.08;;;2.35;;
17153;SDS011;8692;52.164;7.558;2022-08-19T11:03:20;2.53;;;2.35;;
17153;SDS011;8692;52.164;7.558;2022-08-19T11:05:56;2.38;;;2.17;;
17153;SDS011;8692;52.164;7.558;2022-08-19T11:08:28;3.70;;;2.30;;
17153;SDS011;8692;52.164;7.558;2022-08-19T11:11:01;3.50;;;2.72;;
17153;SDS011;8692;52.164;7.558;2022-08-19T11:13:30;3.03;;;2.72;;
17153;SDS011;8692;52.164;7.558;2022-08-19T11:16:02;4.25;;;2.65;;
17153;SDS011;8692;52.164;7.558;2022-08-19T11:18:34;6.50;;;2.80;;
17153;SDS011;8692;52.164;7.558;2022-08-19T11:21:11;3.40;;;2.70;;
17153;SDS011;8692;52.164;7.558;2022-08-19T11:23:43;3.47;;;2.90;;
17153;SDS011;8692;52.164;7.558;2022-08-19T11:26:13;3.75;;;3.45;;
17153;SDS011;8692;52.164;7.558;2022-08-19T11:28:42;4.93;;;3.45;;
17153;SDS011;8692;52.164;7.558;2022-08-19T11:31:11;3.22;;;3.03;;
17153;SDS011;8692;52.164;7.558;2022-08-19T11:33:40;3.58;;;3.00;;
17153;SDS011;8692;52.164;7.558;2022-08-19T11:36:15;3.90;;;3.50;;
17153;SDS011;8692;52.164;7.558;2022-08-19T11:38:44;3.40;;;3.20;;
17153;SDS011;8692;52.164;7.558;2022-08-19T11:41:16;5.22;;;3.65;;
17153;SDS011;8692;52.164;7.558;2022-08-19T11:43:46;3.35;;;3.05;;
17153;SDS011;8692;52.164;7.558;2022-08-19T11:46:15;3.47;;;3.25;;
17153;SDS011;8692;52.164;7.558;2022-08-19T11:48:46;3.63;;;3.28;;
17153;SDS011;8692;52.164;7.558;2022-08-19T11:51:16;4.32;;;3.92;;
17153;SDS011;8692;52.164;7.558;2022-08-19T11:53:46;4.32;;;3.15;;
17153;SDS011;8692;52.164;7.558;2022-08-19T11:56:16;3.85;;;3.50;;
17153;SDS011;8692;52.164;7.558;2022-08-19T11:58:48;4.45;;;3.47;;
17153;SDS011;8692;52.164;7.558;2022-08-19T12:01:20;7.47;;;3.70;;
17153;SDS011;8692;52.164;7.558;2022-08-19T12:03:50;4.07;;;3.67;;
17153;SDS011;8692;52.164;7.558;2022-08-19T12:06:23;3.40;;;3.10;;
17153;SDS011;8692;52.164;7.558;2022-08-19T12:08:55;3.72;;;3.42;;
17153;SDS011;8692;52.164;7.558;2022-08-19T12:11:30;5.82;;;3.50;;
17153;SDS011;8692;52.164;7.558;2022-08-19T12:14:00;4.22;;;3.80;;
17153;SDS011;8692;52.164;7.558;2022-08-19T12:16:29;7.05;;;4.30;;
17153;SDS011;8692;52.164;7.558;2022-08-19T12:19:03;4.10;;;3.38;;
17153;SDS011;8692;52.164;7.558;2022-08-19T12:21:33;4.22;;;3.88;;
17153;SDS011;8692;52.164;7.558;2022-08-19T12:24:05;5.22;;;4.22;;
17153;SDS011;8692;52.164;7.558;2022-08-19T12:26:36;5.85;;;3.65;;
17153;SDS011;8692;52.164;7.558;2022-08-19T12:29:21;3.85;;;3.55;;
17153;SDS011;8692;52.164;7.558;2022-08-19T12:31:58;3.80;;;3.50;;
17153;SDS011;8692;52.164;7.558;2022-08-19T12:34:32;3.55;;;3.35;;
17153;SDS011;8692;52.164;7.558;2022-08-19T12:37:01;4.50;;;4.10;;
17153;SDS011;8692;52.164;7.558;2022-08-19T12:39:33;4.22;;;3.85;;
17153;SDS011;8692;52.164;7.558;2022-08-19T12:42:05;4.28;;;3.88;;
17153;SDS011;8692;52.164;7.558;2022-08-19T12:44:39;4.85;;;4.22;;
17153;SDS011;8692;52.164;7.558;2022-08-19T12:47:10;4.00;;;3.70;;
17153;SDS011;8692;52.164;7.558;2022-08-19T12:49:43;4.07;;;3.42;;
17153;SDS011;8692;52.164;7.558;2022-08-19T12:52:23;3.85;;;3.55;;
17153;SDS011;8692;52.164;7.558;2022-08-19T12:54:55;3.60;;;3.30;;
17153;SDS011;8692;52.164;7.558;2022-08-19T12:57:28;4.03;;;3.63;;
17153;SDS011;8692;52.164;7.558;2022-08-19T13:00:00;3.97;;;3.60;;
17153;SDS011;8692;52.164;7.558;2022-08-19T13:02:33;4.15;;;3.75;;
17153;SDS011;8692;52.164;7.558;2022-08-19T13:05:05;4.00;;;3.70;;
17153;SDS011;8692;52.164;7.558;2022-08-19T13:07:36;4.13;;;3.40;;
17153;SDS011;8692;52.164;7.558;2022-08-19T13:10:05;3.85;;;3.63;;
17153;SDS011;8692;52.164;7.558;2022-08-19T13:12:39;4.50;;;4.10;;
17153;SDS011;8692;52.164;7.558;2022-08-19T13:15:08;3.97;;;3.42;;
17153;SDS011;8692;52.164;7.558;2022-08-19T13:17:38;4.13;;;3.83;;
17153;SDS011;8692;52.164;7.558;2022-08-19T13:20:08;4.28;;;3.92;;
17153;SDS011;8692;52.164;7.558;2022-08-19T13:22:37;6.22;;;4.40;;
17153;SDS011;8692;52.164;7.558;2022-08-19T13:25:07;5.28;;;4.10;;
17153;SDS011;8692;52.164;7.558;2022-08-19T13:27:36;7.53;;;4.72;;
17153;SDS011;8692;52.164;7.558;2022-08-19T13:30:08;5.93;;;5.25;;
17153;SDS011;8692;52.164;7.558;2022-08-19T13:32:58;4.90;;;4.45;;
17153;SDS011;8692;52.164;7.558;2022-08-19T13:35:42;7.10;;;4.93;;
17153;SDS011;8692;52.164;7.558;2022-08-19T13:38:17;5.38;;;4.93;;
17153;SDS011;8692;52.164;7.558;2022-08-19T13:40:47;5.75;;;4.75;;
17153;SDS011;8692;52.164;7.558;2022-08-19T13:43:17;5.18;;;4.78;;
17153;SDS011;8692;52.164;7.558;2022-08-19T13:45:51;6.35;;;5.75;;
17153;SDS011;8692;52.164;7.558;2022-08-19T13:48:24;5.20;;;4.70;;
17153;SDS011;8692;52.164;7.558;2022-08-19T13:50:53;5.10;;;4.55;;
17153;SDS011;8692;52.164;7.558;2022-08-19T13:53:22;4.60;;;4.20;;
17153;SDS011;8692;52.164;7.558;2022-08-19T13:55:51;4.95;;;4.40;;
17153;SDS011;8692;52.164;7.558;2022-08-19T13:58:20;4.68;;;4.38;;
17153;SDS011;8692;52.164;7.558;2022-08-19T14:00:48;5.43;;;4.88;;
17153;SDS011;8692;52.164;7.558;2022-08-19T14:03:20;6.40;;;5.75;;
17153;SDS011;8692;52.164;7.558;2022-08-19T14:05:48;5.63;;;5.10;;
17153;SDS011;8692;52.164;7.558;2022-08-19T14:08:17;5.50;;;5.10;;
17153;SDS011;8692;52.164;7.558;2022-08-19T14:10:45;5.20;;;4.68;;
17153;SDS011;8692;52.164;7.558;2022-08-19T14:13:19;6.00;;;4.85;;
17153;SDS011;8692;52.164;7.558;2022-08-19T14:15:51;5.43;;;4.93;;
17153;SDS011;8692;52.164;7.558;2022-08-19T14:18:19;5.78;;;5.28;;
17153;SDS011;8692;52.164;7.558;2022-08-19T14:20:53;6.10;;;5.35;;
17153;SDS011;8692;52.164;7.558;2022-08-19T14:23:24;5.30;;;4.90;;
17153;SDS011;8692;52.164;7.558;2022-08-19T14:25:52;5.82;;;5.22;;
17153;SDS011;8692;52.164;7.558;2022-08-19T14:28:28;6.35;;;5.75;;
17153;SDS011;8692;52.164;7.558;2022-08-19T14:30:58;6.10;;;5.50;;
17153;SDS011;8692;52.164;7.558;2022-08-19T14:33:29;5.45;;;4.95;;
17153;SDS011;8692;52.164;7.558;2022-08-19T14:36:00;6.03;;;5.53;;
17153;SDS011;8692;52.164;7.558;2022-08-19T14:38:31;5.80;;;5.20;;
17153;SDS011;8692;52.164;7.558;2022-08-19T14:41:06;7.03;;;5.63;;
17153;SDS011;8692;52.164;7.558;2022-08-19T14:43:39;6.05;;;5.55;;
17153;SDS011;8692;52.164;7.558;2022-08-19T14:46:09;5.75;;;5.25;;
17153;SDS011;8692;52.164;7.558;2022-08-19T14:48:42;5.75;;;4.53;;
17153;SDS011;8692;52.164;7.558;2022-08-19T14:51:11;5.22;;;4.82;;
17153;SDS011;8692;52.164;7.558;2022-08-19T14:53:40;6.93;;;6.28;;
17153;SDS011;8692;52.164;7.558;2022-08-19T14:56:10;6.70;;;6.10;;
17153;SDS011;8692;52.164;7.558;2022-08-19T14:58:43;7.75;;;6.20;;
17153;SDS011;8692;52.164;7.558;2022-08-19T15:01:15;7.03;;;5.60;;
17153;SDS011;8692;52.164;7.558;2022-08-19T15:03:44;10.48;;;5.45;;
17153;SDS011;8692;52.164;7.558;2022-08-19T15:06:15;4.72;;;4.32;;
17153;SDS011;8692;52.164;7.558;2022-08-19T15:08:46;4.72;;;4.32;;
17153;SDS011;8692;52.164;7.558;2022-08-19T15:11:18;4.78;;;4.47;;
17153;SDS011;8692;52.164;7.558;2022-08-19T15:13:51;5.38;;;4.88;;
17153;SDS011;8692;52.164;7.558;2022-08-19T15:16:21;6.18;;;4.78;;
17153;SDS011;8692;52.164;7.558;2022-08-19T15:18:52;8.57;;;4.63;;
17153;SDS011;8692;52.164;7.558;2022-08-19T15:21:22;5.07;;;4.60;;
17153;SDS011;8692;52.164;7.558;2022-08-19T15:23:55;5.75;;;4.88;;
17153;SDS011;8692;52.164;7.558;2022-08-19T15:26:25;7.15;;;4.13;;
17153;SDS011;8692;52.164;7.558;2022-08-19T15:28:56;4.75;;;4.35;;